AGGM

Munda Airport

Solomon Islands
METAR AGGM 220600Z 00000KT 9999 -RESH FEW017 FEW018CB BKN028 OVC100 26/24 Q1007
Observed Flight Rules
Oct-22 @ 06:00 UTC (2 hours ago) Marginal Visual Flight Rules
Visibility Clouds
10,000+ meters
  • Few at 1,700' AGL
  • Few at 1,800' AGL
  • Broken at 2,800' AGL
  • Overcast at 10,000' AGL
Temperatures Readings
Current 26°C / 79°F
Dewpoint 24°C / 75°F
Humidity 89%
Altimeter 29.73" Hg
Pressure 1007 hPa
Elevation 6
METAR AGGM 220600Z 00000KT 9999 -RESH FEW017 FEW018CB BKN028 OVC100 26/24 Q1007
Observed Flight Rules
Oct-22 @ 06:00 UTC
(2 hours ago)
MVFR
Clouds
  • Few at 1,700' AGL
  • Few at 1,800' AGL
  • Broken at 2,800' AGL
  • Overcast at 10,000' AGL
Temperature Dewpoint
26°C / 79°F 24°C / 75°F
Humidity Altimeter Pressure
89% 29.73" Hg 1007 hPa